createdAt,value
2023-02-13T00:02:21.668Z,19.65
2023-02-13T00:04:48.847Z,21.10
2023-02-13T00:07:19.433Z,22.83
2023-02-13T00:09:51.960Z,30.25
2023-02-13T00:12:20.892Z,27.38
2023-02-13T00:14:47.634Z,22.60
2023-02-13T00:17:18.065Z,21.55
2023-02-13T00:19:48.962Z,21.33
2023-02-13T00:22:21.716Z,23.25
2023-02-13T00:24:53.931Z,21.33
2023-02-13T00:27:24.345Z,23.40
2023-02-13T00:29:54.146Z,25.88
2023-02-13T00:32:26.497Z,24.42
2023-02-13T00:34:57.435Z,22.40
2023-02-13T00:37:25.853Z,20.58
2023-02-13T00:40:03.782Z,18.08
2023-02-13T00:42:32.763Z,17.60
2023-02-13T00:45:02.602Z,18.60
2023-02-13T00:47:33.313Z,19.13
2023-02-13T00:50:06.162Z,18.85
2023-02-13T00:52:42.003Z,18.65
2023-02-13T00:55:09.183Z,18.08
2023-02-13T00:57:39.801Z,18.98
2023-02-13T01:01:05.540Z,20.15
2023-02-13T01:03:35.218Z,17.35
2023-02-13T01:06:06.817Z,20.48
2023-02-13T01:08:45.420Z,17.70
2023-02-13T01:11:19.388Z,18.40
2023-02-13T01:13:46.641Z,19.40
2023-02-13T01:16:18.077Z,19.05
2023-02-13T01:18:52.695Z,20.63
2023-02-13T01:21:25.548Z,19.15
2023-02-13T01:24:04.034Z,18.95
2023-02-13T01:26:40.010Z,20.90
2023-02-13T01:29:15.450Z,18.33
2023-02-13T01:31:42.710Z,18.85
2023-02-13T01:34:14.150Z,19.73
2023-02-13T01:36:42.386Z,19.67
2023-02-13T01:39:12.779Z,18.45
2023-02-13T01:41:40.544Z,21.23
2023-02-13T01:44:46.530Z,20.63
2023-02-13T01:47:25.091Z,19.73
2023-02-13T01:50:04.416Z,22.20
2023-02-13T01:52:38.861Z,19.75
2023-02-13T01:55:10.545Z,19.35
2023-02-13T01:57:43.720Z,20.25
2023-02-13T02:00:19.859Z,20.05
2023-02-13T02:03:04.942Z,20.92
2023-02-13T02:05:36.480Z,20.58
2023-02-13T02:08:08.035Z,21.88
2023-02-13T02:10:44.141Z,22.00
2023-02-13T02:13:20.720Z,21.98
2023-02-13T02:15:51.032Z,22.42
2023-02-13T02:18:27.607Z,22.80
2023-02-13T02:21:09.832Z,23.35
2023-02-13T02:23:55.515Z,20.98
2023-02-13T02:26:25.104Z,23.15
2023-02-13T02:28:57.933Z,21.73
2023-02-13T02:32:06.501Z,21.85
2023-02-13T02:34:52.480Z,22.63
2023-02-13T02:37:52.808Z,22.45
2023-02-13T02:40:41.287Z,20.30
2023-02-13T02:43:13.958Z,23.02
2023-02-13T02:45:58.423Z,22.35
2023-02-13T02:49:13.218Z,22.55
2023-02-13T02:51:52.330Z,20.52
2023-02-13T02:55:08.787Z,21.52
2023-02-13T02:58:09.863Z,25.00
2023-02-13T03:01:02.773Z,19.95
2023-02-13T03:03:52.428Z,20.13
2023-02-13T03:06:41.213Z,21.58
2023-02-13T03:09:41.010Z,20.92
2023-02-13T03:12:27.993Z,20.05
2023-02-13T03:17:42.721Z,20.10
2023-02-13T03:21:09.353Z,19.70
2023-02-13T03:23:58.603Z,20.80
2023-02-13T03:26:56.766Z,19.83
2023-02-13T03:30:04.103Z,18.80
2023-02-13T03:32:49.425Z,18.92
2023-02-13T03:35:42.898Z,17.70
2023-02-13T03:38:24.145Z,19.33
2023-02-13T03:41:18.952Z,18.27
2023-02-13T03:43:51.041Z,19.17
2023-02-13T03:46:20.193Z,20.70
2023-02-13T03:49:11.574Z,17.30
2023-02-13T03:51:48.321Z,16.60
2023-02-13T03:54:44.601Z,19.35
2023-02-13T03:57:37.103Z,18.75
2023-02-13T04:00:14.345Z,17.73
2023-02-13T04:02:55.175Z,19.38
2023-02-13T04:05:25.823Z,19.40
2023-02-13T04:07:52.552Z,17.65
2023-02-13T04:10:20.529Z,16.58
2023-02-13T04:12:53.688Z,17.50
2023-02-13T04:15:43.802Z,15.80
2023-02-13T04:18:15.753Z,17.77
2023-02-13T04:20:45.514Z,16.13
2023-02-13T04:23:23.184Z,15.38
2023-02-13T04:25:57.305Z,15.15
2023-02-13T04:28:29.214Z,14.68
2023-02-13T04:30:56.817Z,14.75
2023-02-13T04:33:27.063Z,16.67
2023-02-13T04:35:58.780Z,15.05
2023-02-13T04:38:29.760Z,14.18
2023-02-13T04:41:00.969Z,16.92
2023-02-13T04:43:32.444Z,14.88
2023-02-13T04:46:14.471Z,16.13
2023-02-13T04:48:44.356Z,14.30
2023-02-13T04:51:22.178Z,14.70
2023-02-13T04:53:49.293Z,16.03
2023-02-13T04:56:17.991Z,15.85
2023-02-13T04:58:46.729Z,15.05
2023-02-13T05:01:17.674Z,17.75
2023-02-13T05:03:52.398Z,15.05
2023-02-13T05:06:25.909Z,14.50
2023-02-13T05:08:53.104Z,15.43
2023-02-13T05:11:20.110Z,15.82
2023-02-13T05:13:46.754Z,14.07
2023-02-13T05:16:13.683Z,15.77
2023-02-13T05:18:40.619Z,13.70
2023-02-13T05:21:28.284Z,15.40
2023-02-13T05:24:00.771Z,15.65
2023-02-13T05:26:47.594Z,16.38
2023-02-13T05:29:32.335Z,14.02
2023-02-13T05:32:01.254Z,14.48
2023-02-13T05:34:34.306Z,15.73
2023-02-13T05:37:12.482Z,15.45
2023-02-13T05:39:50.760Z,15.55
2023-02-13T05:42:30.018Z,14.30
2023-02-13T05:45:12.152Z,14.25
2023-02-13T05:47:58.736Z,15.57
2023-02-13T05:50:35.218Z,16.17
2023-02-13T05:53:32.213Z,15.10
2023-02-13T05:56:01.437Z,16.02
2023-02-13T05:58:48.043Z,14.60
2023-02-13T06:01:30.145Z,15.65
2023-02-13T06:03:59.324Z,16.27
2023-02-13T06:06:32.670Z,17.50
2023-02-13T06:09:02.556Z,15.30
2023-02-13T06:11:32.088Z,16.95
2023-02-13T06:14:06.006Z,18.10
2023-02-13T06:16:34.368Z,16.10
2023-02-13T06:19:05.870Z,16.30
2023-02-13T06:21:39.206Z,17.73
2023-02-13T06:24:07.412Z,17.55
2023-02-13T06:26:35.127Z,17.90
2023-02-13T06:29:04.548Z,18.75
2023-02-13T06:31:33.022Z,16.00
2023-02-13T06:34:04.319Z,16.95
2023-02-13T06:36:36.134Z,16.63
2023-02-13T06:39:06.818Z,17.70
2023-02-13T06:41:43.790Z,16.95
2023-02-13T06:44:12.829Z,17.50
2023-02-13T06:46:42.112Z,20.63
2023-02-13T06:49:23.632Z,18.45
2023-02-13T06:51:50.723Z,15.95
2023-02-13T06:54:17.667Z,16.60
2023-02-13T06:56:49.806Z,18.48
2023-02-13T06:59:22.821Z,15.82
2023-02-13T07:01:52.233Z,18.38
2023-02-13T07:04:23.855Z,18.42
2023-02-13T07:06:53.955Z,17.88
2023-02-13T07:09:20.896Z,16.55
2023-02-13T07:11:47.881Z,17.92
2023-02-13T07:14:14.765Z,16.17
2023-02-13T07:16:44.512Z,17.42
2023-02-13T07:19:15.533Z,17.52
2023-02-13T07:21:42.434Z,16.73
2023-02-13T07:24:09.369Z,17.42
2023-02-13T07:26:38.784Z,17.73
2023-02-13T07:29:11.748Z,18.10
2023-02-13T07:31:44.295Z,18.95
2023-02-13T07:34:18.495Z,18.35
2023-02-13T07:36:45.638Z,18.02
2023-02-13T07:39:21.282Z,18.83
2023-02-13T07:41:53.877Z,19.27
2023-02-13T07:44:25.766Z,18.73
2023-02-13T07:46:52.904Z,23.23
2023-02-13T07:49:26.122Z,21.35
2023-02-13T07:51:53.186Z,21.25
2023-02-13T07:54:20.421Z,17.48
2023-02-13T07:56:47.537Z,17.77
2023-02-13T07:59:16.776Z,18.77
2023-02-13T08:01:43.963Z,17.48
2023-02-13T08:04:11.064Z,17.73
2023-02-13T08:06:47.227Z,17.52
2023-02-13T08:09:40.929Z,19.65
2023-02-13T08:12:16.373Z,18.25
2023-02-13T08:14:47.169Z,21.50
2023-02-13T08:17:16.532Z,18.77
2023-02-13T08:19:43.580Z,19.05
2023-02-13T08:22:14.759Z,19.98
2023-02-13T08:24:41.667Z,19.08
2023-02-13T08:27:12.575Z,19.95
2023-02-13T08:29:42.176Z,20.08
2023-02-13T08:32:11.850Z,18.88
2023-02-13T08:34:44.042Z,19.92
2023-02-13T08:37:13.581Z,19.17
2023-02-13T08:39:43.984Z,21.05
2023-02-13T08:42:18.638Z,19.73
2023-02-13T08:45:05.841Z,20.63
2023-02-13T08:47:37.326Z,21.98
2023-02-13T08:50:14.222Z,19.63
2023-02-13T08:52:50.953Z,20.77
2023-02-13T08:55:33.019Z,20.90
2023-02-13T08:58:07.255Z,22.65
2023-02-13T09:00:37.723Z,23.70
2023-02-13T09:03:09.133Z,20.98
2023-02-13T09:05:39.628Z,19.95
2023-02-13T09:08:14.141Z,20.95
2023-02-13T09:10:51.641Z,22.45
2023-02-13T09:13:24.976Z,22.23
2023-02-13T09:16:07.028Z,20.85
2023-02-13T09:18:38.275Z,22.60
2023-02-13T09:21:10.345Z,22.10
2023-02-13T09:23:45.462Z,21.70
2023-02-13T09:26:16.548Z,22.08
2023-02-13T09:28:54.273Z,21.15
2023-02-13T09:31:26.317Z,23.60
2023-02-13T09:34:17.908Z,24.65
2023-02-13T09:36:52.375Z,20.60
2023-02-13T09:39:22.973Z,21.15
2023-02-13T09:41:54.563Z,23.77
2023-02-13T09:44:39.211Z,20.70
2023-02-13T09:47:18.182Z,22.65
2023-02-13T09:49:55.037Z,21.67
2023-02-13T09:52:22.965Z,22.08
2023-02-13T09:54:52.436Z,20.65
2023-02-13T09:57:40.119Z,21.80
2023-02-13T10:00:22.393Z,21.60
2023-02-13T10:02:58.449Z,20.13
2023-02-13T10:05:44.034Z,21.98
2023-02-13T10:08:23.744Z,21.80
2023-02-13T10:11:18.942Z,20.10
2023-02-13T10:13:45.922Z,21.02
2023-02-13T10:16:30.696Z,21.95
2023-02-13T10:19:09.420Z,22.52
2023-02-13T10:21:53.953Z,22.73
2023-02-13T10:24:30.400Z,22.63
2023-02-13T10:30:19.260Z,20.67
2023-02-13T10:33:27.282Z,21.05
2023-02-13T10:36:04.196Z,17.35
2023-02-13T10:38:36.282Z,20.77
2023-02-13T10:41:26.533Z,19.50
2023-02-13T10:44:02.779Z,20.27
2023-02-13T10:46:46.187Z,22.15
2023-02-13T10:49:56.090Z,18.83
2023-02-13T10:52:28.841Z,22.02
2023-02-13T10:55:15.610Z,21.33
2023-02-13T10:57:56.320Z,20.00
2023-02-13T11:00:37.902Z,17.85
2023-02-13T11:03:06.239Z,17.90
2023-02-13T11:05:45.367Z,20.13
2023-02-13T11:08:24.038Z,19.35
2023-02-13T11:10:51.936Z,17.40
2023-02-13T11:13:22.205Z,18.38
2023-02-13T11:16:13.948Z,20.13
2023-02-13T11:18:44.353Z,19.60
2023-02-13T11:21:22.361Z,19.02
2023-02-13T11:23:54.656Z,18.60
2023-02-13T11:26:28.876Z,20.85
2023-02-13T11:29:01.042Z,19.73
2023-02-13T11:31:36.638Z,19.58
2023-02-13T11:34:18.993Z,22.05
2023-02-13T11:36:45.809Z,20.42
2023-02-13T11:39:29.752Z,21.98
2023-02-13T11:42:04.360Z,23.85
2023-02-13T11:44:33.964Z,20.65
2023-02-13T11:47:05.602Z,20.95
2023-02-13T11:49:39.943Z,21.25
2023-02-13T11:52:10.756Z,21.60
2023-02-13T11:54:46.726Z,20.70
2023-02-13T11:57:31.563Z,21.40
2023-02-13T11:59:59.864Z,20.17
2023-02-13T12:02:49.601Z,20.85
2023-02-13T12:05:30.050Z,21.38
2023-02-13T12:08:01.778Z,21.38
2023-02-13T12:10:33.980Z,20.92
2023-02-13T12:13:15.665Z,22.65
2023-02-13T12:15:49.014Z,25.05
2023-02-13T12:18:20.797Z,21.88
2023-02-13T12:21:12.248Z,22.50
2023-02-13T12:23:42.137Z,24.52
2023-02-13T12:26:44.640Z,21.85
2023-02-13T12:29:34.345Z,24.05
2023-02-13T12:32:20.496Z,23.40
2023-02-13T12:35:25.836Z,24.63
2023-02-13T12:37:59.551Z,24.92
2023-02-13T12:40:59.326Z,24.92
2023-02-13T12:43:28.961Z,25.73
2023-02-13T12:46:01.773Z,24.25
2023-02-13T12:48:42.119Z,24.73
2023-02-13T12:51:24.054Z,23.63
2023-02-13T12:54:16.948Z,25.90
2023-02-13T12:57:10.872Z,28.30
2023-02-13T13:00:16.194Z,25.58
2023-02-13T13:03:11.097Z,29.40
2023-02-13T13:06:03.507Z,27.73
2023-02-13T13:09:19.066Z,28.73
2023-02-13T13:12:02.738Z,26.00
2023-02-13T13:14:55.777Z,28.98
2023-02-13T13:17:43.456Z,31.52
2023-02-13T13:20:29.957Z,28.60
2023-02-13T13:23:05.726Z,30.83
2023-02-13T13:25:35.800Z,31.48
2023-02-13T13:28:15.679Z,30.27
2023-02-13T13:30:43.471Z,32.75
2023-02-13T13:33:20.910Z,29.27
2023-02-13T13:36:15.503Z,31.75
2023-02-13T13:38:54.262Z,28.35
2023-02-13T13:41:41.711Z,30.13
2023-02-13T13:44:38.945Z,32.78
2023-02-13T13:47:41.202Z,30.02
2023-02-13T13:50:24.007Z,33.40
2023-02-13T13:53:25.354Z,33.72
2023-02-13T13:55:56.482Z,29.77
2023-02-13T13:58:32.712Z,31.17
2023-02-13T14:01:18.350Z,30.08
2023-02-13T14:03:59.467Z,33.00
2023-02-13T14:06:50.205Z,31.75
2023-02-13T14:09:44.803Z,31.90
2023-02-13T14:12:30.302Z,31.95
2023-02-13T14:15:07.616Z,32.67
2023-02-13T14:17:49.779Z,32.95
2023-02-13T14:20:42.177Z,33.95
2023-02-13T14:23:27.877Z,32.20
2023-02-13T14:26:13.387Z,31.08
2023-02-13T14:28:55.970Z,30.92
2023-02-13T14:31:40.812Z,31.60
2023-02-13T14:34:20.639Z,32.85
2023-02-13T14:37:19.308Z,33.53
2023-02-13T14:40:15.906Z,29.53
2023-02-13T14:43:18.842Z,31.95
2023-02-13T14:45:57.458Z,27.42
2023-02-13T14:48:42.405Z,31.23
2023-02-13T14:51:36.329Z,32.15
2023-02-13T14:54:36.033Z,33.00
2023-02-13T14:57:14.311Z,32.33
2023-02-13T14:59:53.803Z,30.40
2023-02-13T15:02:25.191Z,32.38
2023-02-13T15:05:20.734Z,32.78
2023-02-13T15:07:52.741Z,32.65
2023-02-13T15:10:51.910Z,28.70
2023-02-13T15:13:33.496Z,31.92
2023-02-13T15:16:15.777Z,30.77
2023-02-13T15:19:08.634Z,32.25
2023-02-13T15:21:36.599Z,32.40
2023-02-13T15:24:08.480Z,32.78
2023-02-13T15:26:50.281Z,32.50
2023-02-13T15:29:44.233Z,31.48
2023-02-13T15:32:27.304Z,31.38
2023-02-13T15:35:11.909Z,34.45
2023-02-13T15:37:42.137Z,30.48
2023-02-13T15:40:25.724Z,30.05
2023-02-13T15:42:57.667Z,31.10
2023-02-13T15:45:30.970Z,30.70
2023-02-13T15:47:59.182Z,29.75
2023-02-13T15:50:36.297Z,32.45
2023-02-13T15:56:06.667Z,30.38
2023-02-13T15:58:40.337Z,31.38
2023-02-13T16:01:20.762Z,31.33
2023-02-13T16:03:54.400Z,30.58
2023-02-13T16:06:29.627Z,30.67
2023-02-13T16:09:30.857Z,30.52
2023-02-13T16:12:24.286Z,29.65
2023-02-13T16:15:08.845Z,28.08
2023-02-13T16:17:48.580Z,30.02
2023-02-13T16:20:36.099Z,30.27
2023-02-13T16:23:23.967Z,27.65
2023-02-13T16:26:11.531Z,26.85
2023-02-13T16:28:53.448Z,28.65
2023-02-13T16:31:28.598Z,31.48
2023-02-13T16:34:16.999Z,31.85
2023-02-13T16:37:05.350Z,31.33
2023-02-13T16:39:40.317Z,28.73
2023-02-13T16:42:40.038Z,30.02
2023-02-13T17:06:20.292Z,24.98
2023-02-13T17:09:21.240Z,26.77
2023-02-13T17:12:02.847Z,24.65
2023-02-13T17:14:47.014Z,26.33
2023-02-13T17:17:26.105Z,33.35
2023-02-13T17:20:06.699Z,27.30
2023-02-13T17:25:54.215Z,27.75
2023-02-13T17:28:30.970Z,25.02
2023-02-13T17:34:19.621Z,27.60
2023-02-13T17:36:57.919Z,27.27
2023-02-13T17:40:04.378Z,29.27
2023-02-13T17:42:40.002Z,29.13
2023-02-13T17:45:07.707Z,26.67
2023-02-13T17:47:38.594Z,25.17
2023-02-13T17:50:10.891Z,25.98
2023-02-13T17:52:42.125Z,27.48
2023-02-13T17:55:27.853Z,26.27
2023-02-13T17:58:29.201Z,25.67
2023-02-13T18:01:03.000Z,26.95
2023-02-13T18:03:35.782Z,26.73
2023-02-13T18:06:12.285Z,24.85
2023-02-13T18:08:48.398Z,27.23
2023-02-13T18:11:15.577Z,27.00
2023-02-13T18:13:48.172Z,27.77
2023-02-13T18:16:26.294Z,26.63
2023-02-13T18:19:16.804Z,30.48
2023-02-13T18:21:56.564Z,26.92
2023-02-13T18:24:58.311Z,26.17
2023-02-13T18:27:55.655Z,27.70
2023-02-13T18:30:45.940Z,27.95
2023-02-13T18:33:30.871Z,28.80
2023-02-13T18:36:27.771Z,27.35
2023-02-13T18:39:23.058Z,28.33
2023-02-13T18:42:18.962Z,29.98
2023-02-13T18:45:14.385Z,28.60
2023-02-13T18:48:27.181Z,29.10
2023-02-13T18:51:14.428Z,31.42
2023-02-13T18:54:49.195Z,30.55
2023-02-13T18:57:16.667Z,27.58
2023-02-13T19:00:01.518Z,29.05
2023-02-13T19:02:52.035Z,30.65
2023-02-13T19:05:29.978Z,28.50
2023-02-13T19:08:53.133Z,31.52
2023-02-13T19:12:00.261Z,30.45
2023-02-13T19:14:49.918Z,30.30
2023-02-13T19:17:18.108Z,31.65
2023-02-13T19:19:58.021Z,34.00
2023-02-13T19:22:38.726Z,33.15
2023-02-13T19:28:03.949Z,33.65
2023-02-13T19:31:03.026Z,30.98
2023-02-13T19:36:44.359Z,31.67
2023-02-13T19:39:15.051Z,31.30
2023-02-13T19:41:41.910Z,30.50
2023-02-13T19:44:08.905Z,32.20
2023-02-13T19:46:37.076Z,33.38
2023-02-13T19:49:04.838Z,31.95
2023-02-13T19:51:34.022Z,32.38
2023-02-13T19:54:03.913Z,30.23
2023-02-13T19:56:32.050Z,32.50
2023-02-13T19:58:58.960Z,32.05
2023-02-13T20:01:28.042Z,35.67
2023-02-13T20:03:55.720Z,32.83
2023-02-13T20:06:25.129Z,33.75
2023-02-13T20:08:52.464Z,34.25
2023-02-13T20:11:21.122Z,35.75
2023-02-13T20:13:48.583Z,36.15
2023-02-13T20:16:18.874Z,37.50
2023-02-13T20:18:45.590Z,34.78
2023-02-13T20:21:14.535Z,35.40
2023-02-13T20:23:42.686Z,35.33
2023-02-13T20:26:13.688Z,36.75
2023-02-13T20:28:41.958Z,36.65
2023-02-13T20:31:14.475Z,37.22
2023-02-13T20:33:41.878Z,35.40
2023-02-13T20:36:16.493Z,34.28
2023-02-13T20:38:43.295Z,31.75
2023-02-13T20:41:10.977Z,35.85
2023-02-13T20:43:37.773Z,33.33
2023-02-13T20:46:05.799Z,36.40
2023-02-13T20:48:35.248Z,34.65
2023-02-13T20:51:03.797Z,34.38
2023-02-13T20:53:31.186Z,35.95
2023-02-13T20:56:05.560Z,43.28
2023-02-13T20:58:33.642Z,37.05
2023-02-13T21:01:01.335Z,33.83
2023-02-13T21:03:28.415Z,47.85
2023-02-13T21:05:55.263Z,55.80
2023-02-13T21:08:22.030Z,40.33
2023-02-13T21:10:48.676Z,36.83
2023-02-13T21:13:15.320Z,38.63
2023-02-13T21:15:42.289Z,38.90
2023-02-13T21:18:09.509Z,36.45
2023-02-13T21:20:36.626Z,35.22
2023-02-13T21:23:05.403Z,35.60
2023-02-13T21:25:33.437Z,36.03
2023-02-13T21:28:00.125Z,34.72
2023-02-13T21:30:26.866Z,33.90
2023-02-13T21:32:53.609Z,34.60
2023-02-13T21:35:20.263Z,34.65
2023-02-13T21:37:46.923Z,33.55
2023-02-13T21:40:13.648Z,32.88
2023-02-13T21:42:40.296Z,34.00
2023-02-13T21:45:07.339Z,33.53
2023-02-13T21:47:34.509Z,34.45
2023-02-13T21:50:01.167Z,32.88
2023-02-13T21:52:27.888Z,34.15
2023-02-13T21:54:54.617Z,33.58
2023-02-13T21:57:21.346Z,34.08
2023-02-13T21:59:48.048Z,32.58
2023-02-13T22:02:14.873Z,34.10
2023-02-13T22:04:42.293Z,34.25
2023-02-13T22:07:09.132Z,34.28
2023-02-13T22:09:35.847Z,33.72
2023-02-13T22:12:03.612Z,36.78
2023-02-13T22:14:30.331Z,34.38
2023-02-13T22:16:57.545Z,35.97
2023-02-13T22:19:24.352Z,35.25
2023-02-13T22:21:51.313Z,34.05
2023-02-13T22:24:17.953Z,33.63
2023-02-13T22:26:45.463Z,34.35
2023-02-13T22:29:14.563Z,33.80
2023-02-13T22:31:41.812Z,36.80
2023-02-13T22:34:11.741Z,34.22
2023-02-13T22:36:41.372Z,31.13
2023-02-13T22:39:09.855Z,30.30
2023-02-13T22:41:37.591Z,32.53
2023-02-13T22:44:04.447Z,34.55
2023-02-13T22:46:32.800Z,33.88
2023-02-13T22:48:59.946Z,31.13
2023-02-13T22:51:30.648Z,33.83
2023-02-13T22:53:58.684Z,31.73
2023-02-13T22:56:26.798Z,30.55
2023-02-13T22:58:54.067Z,31.15
2023-02-13T23:01:23.394Z,33.33
2023-02-13T23:03:50.293Z,31.80
2023-02-13T23:06:18.333Z,32.75
2023-02-13T23:08:45.448Z,32.58
2023-02-13T23:11:33.742Z,35.05
2023-02-13T23:14:00.820Z,33.88
2023-02-13T23:16:27.797Z,32.35
2023-02-13T23:18:57.826Z,32.67
2023-02-13T23:21:25.523Z,35.30
2023-02-13T23:23:52.600Z,31.55
2023-02-13T23:26:29.847Z,35.30
2023-02-13T23:29:23.852Z,36.83
2023-02-13T23:32:18.120Z,35.55
2023-02-13T23:35:00.448Z,37.35
2023-02-13T23:37:27.372Z,33.63
2023-02-13T23:39:54.108Z,34.47
2023-02-13T23:42:20.810Z,37.03
2023-02-13T23:44:47.476Z,31.90
2023-02-13T23:47:14.262Z,33.47
2023-02-13T23:49:40.922Z,32.20
2023-02-13T23:52:07.834Z,31.40
2023-02-13T23:54:35.629Z,32.80
2023-02-13T23:57:02.423Z,31.08
2023-02-13T23:59:29.141Z,33.55
